createdAt,value
2022-11-22T00:01:48.961Z,9.60
2022-11-22T00:04:17.004Z,9.60
2022-11-22T00:06:46.121Z,9.70
2022-11-22T00:09:16.673Z,9.70
2022-11-22T00:11:47.182Z,9.50
2022-11-22T00:14:16.401Z,9.50
2022-11-22T00:16:45.765Z,9.40
2022-11-22T00:19:14.413Z,9.30
2022-11-22T00:21:43.068Z,9.40
2022-11-22T00:24:16.196Z,9.20
2022-11-22T00:26:44.745Z,9.00
2022-11-22T00:29:14.006Z,8.80
2022-11-22T00:31:42.213Z,8.90
2022-11-22T00:34:12.044Z,9.30
2022-11-22T00:36:40.126Z,9.20
2022-11-22T00:39:08.131Z,9.40
2022-11-22T00:41:36.912Z,9.40
2022-11-22T00:44:05.108Z,9.50
2022-11-22T00:46:34.277Z,9.60
2022-11-22T00:49:02.314Z,9.60
2022-11-22T00:51:32.089Z,9.70
2022-11-22T00:54:00.970Z,10.00
2022-11-22T00:56:31.528Z,10.00
2022-11-22T00:59:08.218Z,9.50
2022-11-22T01:01:40.260Z,9.20
2022-11-22T01:04:08.444Z,9.20
2022-11-22T01:06:40.600Z,9.20
2022-11-22T01:09:08.712Z,9.50
2022-11-22T01:12:04.163Z,9.40
2022-11-22T01:14:32.206Z,9.20
2022-11-22T01:17:01.173Z,9.20
2022-11-22T01:19:29.783Z,9.30
2022-11-22T01:22:01.255Z,9.50
2022-11-22T01:24:29.765Z,9.30
2022-11-22T01:26:58.440Z,9.30
2022-11-22T01:29:32.467Z,9.00
2022-11-22T01:32:03.171Z,8.90
2022-11-22T01:34:34.272Z,9.00
2022-11-22T01:37:06.230Z,8.80
2022-11-22T01:39:35.910Z,8.80
2022-11-22T01:42:03.962Z,8.70
2022-11-22T01:44:34.988Z,8.90
2022-11-22T01:47:11.113Z,8.90
2022-11-22T01:49:44.985Z,8.40
2022-11-22T01:52:22.478Z,8.50
2022-11-22T01:54:54.370Z,8.60
2022-11-22T01:57:26.015Z,8.10
2022-11-22T01:59:59.521Z,8.60
2022-11-22T02:02:28.924Z,8.80
2022-11-22T02:04:59.552Z,8.70
2022-11-22T02:07:36.741Z,8.70
2022-11-22T02:10:05.614Z,8.60
2022-11-22T02:12:39.606Z,8.80
2022-11-22T02:15:08.567Z,9.30
2022-11-22T02:17:37.913Z,9.00
2022-11-22T02:20:08.355Z,9.30
2022-11-22T02:22:44.635Z,9.40
2022-11-22T02:25:19.802Z,9.50
2022-11-22T02:27:50.549Z,9.60
2022-11-22T02:30:22.722Z,9.60
2022-11-22T02:32:50.873Z,9.50
2022-11-22T02:35:21.858Z,9.30
2022-11-22T02:37:56.118Z,9.10
2022-11-22T02:40:25.156Z,9.00
2022-11-22T02:43:00.132Z,9.40
2022-11-22T02:45:35.388Z,9.50
2022-11-22T02:48:09.838Z,9.90
2022-11-22T02:50:41.406Z,9.20
2022-11-22T02:53:11.206Z,8.70
2022-11-22T02:55:41.791Z,9.10
2022-11-22T02:58:13.258Z,9.40
2022-11-22T03:03:24.809Z,9.50
2022-11-22T03:05:56.246Z,9.40
2022-11-22T03:11:07.733Z,10.10
2022-11-22T03:13:37.170Z,9.60
2022-11-22T03:16:08.078Z,9.30
2022-11-22T03:18:37.511Z,9.20
2022-11-22T03:21:07.061Z,9.40
2022-11-22T03:23:36.302Z,9.60
2022-11-22T03:26:09.300Z,9.50
2022-11-22T03:28:38.901Z,9.60
2022-11-22T03:31:08.024Z,9.70
2022-11-22T03:33:37.232Z,9.50
2022-11-22T03:36:13.202Z,9.50
2022-11-22T03:38:41.695Z,9.50
2022-11-22T03:41:10.985Z,9.20
2022-11-22T03:43:48.489Z,9.30
2022-11-22T03:46:19.872Z,9.60
2022-11-22T03:48:49.230Z,9.90
2022-11-22T03:51:17.233Z,10.00
2022-11-22T03:53:46.149Z,10.00
2022-11-22T03:56:16.492Z,9.90
2022-11-22T03:58:46.333Z,10.10
2022-11-22T04:01:16.834Z,9.80
2022-11-22T04:03:46.040Z,10.00
2022-11-22T04:06:14.155Z,9.80
2022-11-22T04:08:42.860Z,10.00
2022-11-22T04:11:14.019Z,10.00
2022-11-22T04:13:59.462Z,9.70
2022-11-22T04:16:31.828Z,9.70
2022-11-22T04:19:00.526Z,9.90
2022-11-22T04:21:37.048Z,9.90
2022-11-22T04:24:26.258Z,9.70
2022-11-22T04:26:55.301Z,9.90
2022-11-22T04:29:24.017Z,9.70
2022-11-22T04:32:11.123Z,9.70
2022-11-22T04:34:41.507Z,9.90
2022-11-22T04:37:10.564Z,9.90
2022-11-22T04:39:39.529Z,10.10
2022-11-22T04:42:27.884Z,9.70
2022-11-22T04:44:56.885Z,9.60
2022-11-22T04:47:50.359Z,9.40
2022-11-22T04:50:37.257Z,9.50
2022-11-22T04:53:06.059Z,9.50
2022-11-22T04:55:34.584Z,9.40
2022-11-22T04:58:02.771Z,8.90
2022-11-22T05:00:32.124Z,9.20
2022-11-22T05:03:04.814Z,9.00
2022-11-22T05:05:36.585Z,9.40
2022-11-22T05:08:05.552Z,9.20
2022-11-22T05:10:54.722Z,9.10
2022-11-22T05:13:25.453Z,9.20
2022-11-22T05:15:53.646Z,9.40
2022-11-22T05:18:32.484Z,9.60
2022-11-22T05:21:04.898Z,9.50
2022-11-22T05:23:51.277Z,9.60
2022-11-22T05:26:19.714Z,9.80
2022-11-22T05:28:47.703Z,9.60
2022-11-22T05:31:17.828Z,9.50
2022-11-22T05:33:47.838Z,9.20
2022-11-22T05:36:17.871Z,9.10
2022-11-22T05:38:46.535Z,9.20
2022-11-22T05:41:16.274Z,9.00
2022-11-22T05:43:45.773Z,9.30
2022-11-22T05:46:18.336Z,9.60
2022-11-22T05:48:52.707Z,9.50
2022-11-22T05:51:23.044Z,9.60
2022-11-22T05:53:52.125Z,9.70
2022-11-22T05:56:30.005Z,9.70
2022-11-22T05:58:58.941Z,9.60
2022-11-22T06:01:27.012Z,9.50
2022-11-22T06:03:56.903Z,9.30
2022-11-22T06:06:25.574Z,9.20
2022-11-22T06:08:54.510Z,9.00
2022-11-22T06:11:24.473Z,9.20
2022-11-22T06:13:57.602Z,9.20
2022-11-22T06:16:26.702Z,9.20
2022-11-22T06:18:57.978Z,9.30
2022-11-22T06:21:28.984Z,9.00
2022-11-22T06:23:59.781Z,9.00
2022-11-22T06:26:28.773Z,9.10
2022-11-22T06:28:56.925Z,9.20
2022-11-22T06:31:26.604Z,8.80
2022-11-22T06:33:59.088Z,8.90
2022-11-22T06:36:28.747Z,8.90
2022-11-22T06:38:57.640Z,9.10
2022-11-22T06:41:29.146Z,8.70
2022-11-22T06:43:57.573Z,8.80
2022-11-22T06:46:27.431Z,9.00
2022-11-22T06:49:02.984Z,9.20
2022-11-22T06:51:32.986Z,8.80
2022-11-22T06:54:01.176Z,8.90
2022-11-22T06:56:31.280Z,8.90
2022-11-22T06:59:02.669Z,8.80
2022-11-22T07:01:31.562Z,9.00
2022-11-22T07:04:02.051Z,9.30
2022-11-22T07:06:32.089Z,8.80
2022-11-22T07:09:00.979Z,9.10
2022-11-22T07:11:30.896Z,9.00
2022-11-22T07:14:07.074Z,8.90
2022-11-22T07:16:37.417Z,9.00
2022-11-22T07:19:07.712Z,8.50
2022-11-22T07:21:37.773Z,8.40
2022-11-22T07:24:09.986Z,8.50
2022-11-22T07:26:38.506Z,8.60
2022-11-22T07:29:06.527Z,8.80
2022-11-22T07:31:35.198Z,8.80
2022-11-22T07:34:03.276Z,9.00
2022-11-22T07:36:32.824Z,9.20
2022-11-22T07:39:00.851Z,8.90
2022-11-22T07:41:31.525Z,8.90
2022-11-22T07:44:00.043Z,9.10
2022-11-22T07:46:31.264Z,8.20
2022-11-22T07:49:00.456Z,8.30
2022-11-22T07:51:29.095Z,8.10
2022-11-22T07:53:59.408Z,7.90
2022-11-22T07:56:29.801Z,7.80
2022-11-22T07:59:01.336Z,8.00
2022-11-22T08:01:30.266Z,8.20
2022-11-22T08:03:58.321Z,8.50
2022-11-22T08:06:27.300Z,8.40
2022-11-22T08:09:06.991Z,8.20
2022-11-22T08:11:35.162Z,8.30
2022-11-22T08:14:03.164Z,8.10
2022-11-22T08:16:31.795Z,7.90
2022-11-22T08:18:59.785Z,8.20
2022-11-22T08:21:28.201Z,8.00
2022-11-22T08:24:30.706Z,8.00
2022-11-22T08:26:58.697Z,8.20
2022-11-22T08:29:26.848Z,8.30
2022-11-22T08:31:54.846Z,8.00
2022-11-22T08:34:22.871Z,8.00
2022-11-22T08:36:51.191Z,8.10
2022-11-22T08:39:21.233Z,8.40
2022-11-22T08:41:53.565Z,8.30
2022-11-22T08:44:21.632Z,8.20
2022-11-22T08:46:49.602Z,8.00
2022-11-22T08:49:18.541Z,8.20
2022-11-22T08:54:37.358Z,8.10
2022-11-22T08:57:10.666Z,8.20
2022-11-22T08:59:39.718Z,8.20
2022-11-22T09:02:07.758Z,8.10
2022-11-22T09:04:36.189Z,8.40
2022-11-22T09:09:53.185Z,8.30
2022-11-22T09:12:25.197Z,8.20
2022-11-22T09:14:59.668Z,8.30
2022-11-22T09:17:27.714Z,8.50
2022-11-22T09:19:55.737Z,8.50
2022-11-22T09:22:28.401Z,8.40
2022-11-22T09:24:56.766Z,8.70
2022-11-22T09:27:27.171Z,8.80
2022-11-22T09:29:55.161Z,8.50
2022-11-22T09:32:28.156Z,8.30
2022-11-22T09:34:58.752Z,8.40
2022-11-22T09:37:26.752Z,8.70
2022-11-22T09:39:54.756Z,8.70
2022-11-22T09:42:47.368Z,8.90
2022-11-22T09:45:35.523Z,9.00
2022-11-22T09:48:13.230Z,9.10
2022-11-22T09:50:52.321Z,8.90
2022-11-22T09:53:26.866Z,9.00
2022-11-22T09:55:59.338Z,8.90
2022-11-22T09:58:33.252Z,8.90
2022-11-22T10:01:06.161Z,9.20
2022-11-22T10:03:44.475Z,8.90
2022-11-22T10:06:19.293Z,9.10
2022-11-22T10:08:57.876Z,8.90
2022-11-22T10:11:36.847Z,9.20
2022-11-22T10:14:22.217Z,9.10
2022-11-22T10:16:57.507Z,8.90
2022-11-22T10:19:38.885Z,9.00
2022-11-22T10:22:14.605Z,9.30
2022-11-22T10:24:44.606Z,9.20
2022-11-22T10:27:15.455Z,9.50
2022-11-22T10:29:52.366Z,9.60
2022-11-22T10:32:26.323Z,9.30
2022-11-22T10:35:13.073Z,9.70
2022-11-22T10:37:54.447Z,9.80
2022-11-22T10:40:27.516Z,9.60
2022-11-22T10:43:25.831Z,9.60
2022-11-22T10:46:02.332Z,9.60
2022-11-22T10:48:39.878Z,9.40
2022-11-22T10:51:18.551Z,9.40
2022-11-22T10:54:03.553Z,9.70
2022-11-22T10:56:39.860Z,9.40
2022-11-22T10:59:28.925Z,9.40
2022-11-22T11:02:13.652Z,9.40
2022-11-22T11:04:43.447Z,9.20
2022-11-22T11:07:17.463Z,9.20
2022-11-22T11:12:48.864Z,9.50
2022-11-22T11:15:22.306Z,9.50
2022-11-22T11:17:58.296Z,9.80
2022-11-22T11:20:29.117Z,10.60
2022-11-22T11:23:15.085Z,11.10
2022-11-22T11:25:45.566Z,11.40
2022-11-22T11:28:21.737Z,11.30
2022-11-22T11:30:54.382Z,11.30
2022-11-22T11:33:28.056Z,11.40
2022-11-22T11:36:06.485Z,10.70
2022-11-22T11:38:37.846Z,10.70
2022-11-22T11:41:25.012Z,10.60
2022-11-22T11:43:54.601Z,10.80
2022-11-22T11:46:25.503Z,11.00
2022-11-22T11:48:56.253Z,10.70
2022-11-22T11:51:36.040Z,10.90
2022-11-22T11:54:11.237Z,10.70
2022-11-22T11:56:47.509Z,10.40
2022-11-22T11:59:18.581Z,10.30
2022-11-22T12:01:55.480Z,10.30
2022-11-22T12:04:30.829Z,10.60
2022-11-22T12:07:04.075Z,11.00
2022-11-22T12:09:41.702Z,11.20
2022-11-22T12:12:18.893Z,11.40
2022-11-22T12:15:10.376Z,11.20
2022-11-22T12:17:49.901Z,11.00
2022-11-22T12:20:25.455Z,11.00
2022-11-22T12:23:18.343Z,10.70
2022-11-22T12:25:50.299Z,10.70
2022-11-22T12:28:21.288Z,10.50
2022-11-22T12:30:54.922Z,10.50
2022-11-22T12:33:28.245Z,10.60
2022-11-22T12:35:58.636Z,11.50
2022-11-22T12:38:33.937Z,12.20
2022-11-22T12:41:05.552Z,12.90
2022-11-22T12:43:40.466Z,14.20
2022-11-22T12:46:15.953Z,14.80
2022-11-22T12:48:49.222Z,15.40
2022-11-22T12:51:29.864Z,15.70
2022-11-22T12:54:02.980Z,15.60
2022-11-22T12:56:35.141Z,15.60
2022-11-22T12:59:14.924Z,15.50
2022-11-22T13:01:48.584Z,14.60
2022-11-22T13:04:23.430Z,13.80
2022-11-22T13:06:59.282Z,13.70
2022-11-22T13:09:33.319Z,14.00
2022-11-22T13:12:05.983Z,14.90
2022-11-22T13:14:37.480Z,15.30
2022-11-22T13:17:08.841Z,16.10
2022-11-22T13:19:45.332Z,17.00
2022-11-22T13:22:30.780Z,17.20
2022-11-22T13:25:15.269Z,18.10
2022-11-22T13:27:46.378Z,17.70
2022-11-22T13:30:22.236Z,15.70
2022-11-22T13:32:53.176Z,15.20
2022-11-22T13:35:28.882Z,13.50
2022-11-22T13:38:01.682Z,13.50
2022-11-22T13:40:32.199Z,13.50
2022-11-22T13:43:32.999Z,13.60
2022-11-22T13:46:04.436Z,13.50
2022-11-22T13:49:14.693Z,13.40
2022-11-22T13:51:57.233Z,12.40
2022-11-22T13:55:02.744Z,11.90
2022-11-22T13:57:38.503Z,11.90
2022-11-22T14:00:43.513Z,11.90
2022-11-22T14:03:23.970Z,11.90
2022-11-22T14:05:54.586Z,11.80
2022-11-22T14:08:31.800Z,11.70
2022-11-22T14:11:13.551Z,11.20
2022-11-22T14:13:52.096Z,11.30
2022-11-22T14:16:41.327Z,11.10
2022-11-22T14:19:21.218Z,10.70
2022-11-22T14:22:03.117Z,10.70
2022-11-22T14:24:51.134Z,10.80
2022-11-22T14:27:35.908Z,11.10
2022-11-22T14:30:18.086Z,11.20
2022-11-22T14:32:53.631Z,11.00
2022-11-22T14:35:30.120Z,11.00
2022-11-22T14:38:02.540Z,10.90
2022-11-22T14:40:42.136Z,11.30
2022-11-22T14:43:40.834Z,11.50
2022-11-22T14:46:37.300Z,11.20
2022-11-22T14:49:11.936Z,10.80
2022-11-22T14:51:40.761Z,10.70
2022-11-22T14:54:21.597Z,10.90
2022-11-22T14:56:50.726Z,10.90
2022-11-22T14:59:40.411Z,11.10
2022-11-22T15:02:39.804Z,10.80
2022-11-22T15:09:13.087Z,11.00
2022-11-22T15:09:20.088Z,11.20
2022-11-22T15:11:26.795Z,11.00
2022-11-22T15:14:33.952Z,10.20
2022-11-22T15:57:29.246Z,10.50
2022-11-22T15:59:58.460Z,10.80
2022-11-22T16:02:29.670Z,10.80
2022-11-22T16:06:09.913Z,11.10
2022-11-22T16:07:55.786Z,11.20
2022-11-22T16:10:28.486Z,10.70
2022-11-22T16:12:56.723Z,10.60
2022-11-22T16:15:31.091Z,10.40
2022-11-22T16:18:09.386Z,10.30
2022-11-22T16:20:39.618Z,10.50
2022-11-22T16:23:29.829Z,10.40
2022-11-22T16:26:15.562Z,10.00
2022-11-22T16:28:43.731Z,10.10
2022-11-22T16:31:20.776Z,9.70
2022-11-22T16:33:51.726Z,9.60
2022-11-22T16:36:21.886Z,9.60
2022-11-22T16:38:51.886Z,9.60
2022-11-22T16:41:24.626Z,9.40
2022-11-22T16:43:55.533Z,9.40
2022-11-22T16:46:26.709Z,9.40
2022-11-22T16:48:55.887Z,9.40
2022-11-22T16:51:26.389Z,9.60
2022-11-22T16:54:01.836Z,9.90
2022-11-22T16:56:33.310Z,10.00
2022-11-22T16:59:01.611Z,9.90
2022-11-22T17:01:34.004Z,9.50
2022-11-22T17:04:03.188Z,9.30
2022-11-22T17:06:32.396Z,9.50
2022-11-22T17:09:06.119Z,9.50
2022-11-22T17:11:34.150Z,9.60
2022-11-22T17:14:02.165Z,9.90
2022-11-22T17:16:31.150Z,9.90
2022-11-22T17:19:01.475Z,9.50
2022-11-22T17:21:37.298Z,9.50
2022-11-22T17:24:14.238Z,9.50
2022-11-22T17:26:50.543Z,9.40
2022-11-22T17:29:43.306Z,9.10
2022-11-22T17:32:08.145Z,9.10
2022-11-22T17:34:36.118Z,9.00
2022-11-22T17:37:04.210Z,9.20
2022-11-22T17:39:35.332Z,9.20
2022-11-22T17:42:07.054Z,9.00
2022-11-22T17:44:35.535Z,9.10
2022-11-22T17:47:03.564Z,9.20
2022-11-22T17:49:32.019Z,9.30
2022-11-22T17:52:00.235Z,9.20
2022-11-22T17:54:29.260Z,9.10
2022-11-22T17:56:58.638Z,9.60
2022-11-22T17:59:27.308Z,9.60
2022-11-22T18:01:55.285Z,9.50
2022-11-22T18:04:25.820Z,9.40
2022-11-22T18:06:54.721Z,8.90
2022-11-22T18:09:22.690Z,9.00
2022-11-22T18:11:54.262Z,9.00
2022-11-22T18:14:28.114Z,9.20
2022-11-22T18:16:56.193Z,9.20
2022-11-22T18:19:28.700Z,9.20
2022-11-22T18:22:08.498Z,9.20
2022-11-22T18:24:36.951Z,9.10
2022-11-22T18:27:07.091Z,9.20
2022-11-22T18:29:42.508Z,9.20
2022-11-22T18:32:11.565Z,9.40
2022-11-22T18:34:42.527Z,9.10
2022-11-22T18:37:10.948Z,9.20
2022-11-22T18:39:40.705Z,9.20
2022-11-22T18:42:15.167Z,9.30
2022-11-22T18:44:45.705Z,9.20
2022-11-22T18:47:21.245Z,9.50
2022-11-22T18:49:49.914Z,9.50
2022-11-22T18:52:20.452Z,9.50
2022-11-22T18:54:51.174Z,9.40
2022-11-22T18:57:19.269Z,9.50
2022-11-22T18:59:48.631Z,9.20
2022-11-22T19:02:17.268Z,9.20
2022-11-22T19:04:45.807Z,9.40
2022-11-22T19:07:14.557Z,9.30
2022-11-22T19:09:42.761Z,9.30
2022-11-22T19:12:11.621Z,9.20
2022-11-22T19:14:47.130Z,9.20
2022-11-22T19:17:22.028Z,8.90
2022-11-22T19:19:56.886Z,9.00
2022-11-22T19:22:27.431Z,9.20
2022-11-22T19:24:55.874Z,9.20
2022-11-22T19:27:24.754Z,9.20
2022-11-22T19:29:53.243Z,9.50
2022-11-22T19:32:22.622Z,9.40
2022-11-22T19:34:51.153Z,9.70
2022-11-22T19:37:19.590Z,9.70
2022-11-22T19:39:48.634Z,9.70
2022-11-22T19:42:17.662Z,9.60
2022-11-22T19:44:46.501Z,9.60
2022-11-22T19:47:14.972Z,9.50
2022-11-22T19:49:44.357Z,9.50
2022-11-22T19:52:14.634Z,9.60
2022-11-22T19:54:43.118Z,9.40
2022-11-22T19:57:11.494Z,9.10
2022-11-22T19:59:39.988Z,9.30
2022-11-22T20:02:09.028Z,9.70
2022-11-22T20:04:39.997Z,9.70
2022-11-22T20:07:11.946Z,9.70
2022-11-22T20:09:40.642Z,9.20
2022-11-22T20:12:08.768Z,9.40
2022-11-22T20:14:37.280Z,9.50
2022-11-22T20:17:06.611Z,9.40
2022-11-22T20:19:34.810Z,9.40
2022-11-22T20:22:02.901Z,9.50
2022-11-22T20:24:33.443Z,9.70
2022-11-22T20:27:02.408Z,9.70
2022-11-22T20:29:30.407Z,9.70
2022-11-22T20:32:08.364Z,9.70
2022-11-22T20:34:36.814Z,9.70
2022-11-22T20:37:07.426Z,9.80
2022-11-22T20:39:37.446Z,9.60
2022-11-22T20:42:32.982Z,9.30
2022-11-22T20:45:00.109Z,9.50
2022-11-22T20:47:28.165Z,9.50
2022-11-22T20:49:56.206Z,9.50
2022-11-22T20:52:24.880Z,9.50
2022-11-22T20:54:54.316Z,9.70
2022-11-22T20:57:22.707Z,9.70
2022-11-22T20:59:51.530Z,9.50
2022-11-22T21:02:22.046Z,9.60
2022-11-22T21:04:51.043Z,9.70
2022-11-22T21:07:19.154Z,9.80
2022-11-22T21:09:47.231Z,9.90
2022-11-22T21:12:16.936Z,9.70
2022-11-22T21:14:45.199Z,9.60
2022-11-22T21:17:39.375Z,9.60
2022-11-22T21:20:01.226Z,9.80
2022-11-22T21:22:31.822Z,9.70
2022-11-22T21:25:01.293Z,9.90
2022-11-22T21:27:31.198Z,9.60
2022-11-22T21:29:59.397Z,9.80
2022-11-22T21:32:27.431Z,9.80
2022-11-22T21:34:57.677Z,9.50
2022-11-22T21:37:26.010Z,9.60
2022-11-22T21:39:54.504Z,9.40
2022-11-22T21:42:23.482Z,9.80
2022-11-22T21:44:55.279Z,9.60
2022-11-22T21:47:24.264Z,9.60
2022-11-22T21:49:52.634Z,9.50
2022-11-22T21:52:23.422Z,9.90
2022-11-22T21:54:55.136Z,9.50
2022-11-22T21:57:23.244Z,9.20
2022-11-22T21:59:55.686Z,9.10
2022-11-22T22:02:24.610Z,9.20
2022-11-22T22:04:54.634Z,9.50
2022-11-22T22:07:50.712Z,9.70
2022-11-22T22:10:12.888Z,10.00
2022-11-22T22:12:41.340Z,9.60
2022-11-22T22:15:12.842Z,9.70
2022-11-22T22:17:41.069Z,9.50
2022-11-22T22:20:09.916Z,9.70
2022-11-22T22:22:41.582Z,9.80
2022-11-22T22:25:10.091Z,9.80
2022-11-22T22:27:38.084Z,9.90
2022-11-22T22:30:10.762Z,9.50
2022-11-22T22:32:42.761Z,9.50
2022-11-22T22:35:11.844Z,9.50
2022-11-22T22:37:39.826Z,9.50
2022-11-22T22:40:09.054Z,9.30
2022-11-22T22:42:40.394Z,9.50
2022-11-22T22:45:09.048Z,9.70
2022-11-22T22:47:37.057Z,10.00
2022-11-22T22:50:08.450Z,9.50
2022-11-22T22:52:36.477Z,9.80
2022-11-22T22:55:04.839Z,9.80
2022-11-22T22:57:33.610Z,9.60
2022-11-22T23:00:01.593Z,9.80
2022-11-22T23:02:30.392Z,9.70
2022-11-22T23:05:01.110Z,9.70
2022-11-22T23:07:30.584Z,9.90
2022-11-22T23:10:00.472Z,9.80
2022-11-22T23:12:28.698Z,9.90
2022-11-22T23:14:59.444Z,9.70
2022-11-22T23:17:28.015Z,9.50
2022-11-22T23:19:58.401Z,9.40
2022-11-22T23:22:26.850Z,9.40
2022-11-22T23:24:56.355Z,9.40
2022-11-22T23:27:24.377Z,9.20
2022-11-22T23:29:52.350Z,9.40
2022-11-22T23:32:21.178Z,9.60
2022-11-22T23:34:52.042Z,9.50
2022-11-22T23:37:20.591Z,9.20
2022-11-22T23:39:50.661Z,9.20
2022-11-22T23:42:30.909Z,9.40
2022-11-22T23:44:59.840Z,9.80
2022-11-22T23:47:28.103Z,9.30
2022-11-22T23:49:56.123Z,9.30
2022-11-22T23:52:27.424Z,9.20
2022-11-22T23:54:56.003Z,9.40
2022-11-22T23:57:27.506Z,9.50
2022-11-22T23:59:56.628Z,9.50
